Latest Weather Observations for Thevenard

IDS60801

Issued at 10:05 pm CST Wednesday 1 October 2014 (issued every 30 minutes, with the page automatically refreshed every 10 minutes)

About weather observations | Map of weather stations | Latest weather observations for SA | Other Formats
Station Details ID: 018200 Name: THEVENARD WIND Lat: -32.18 Lon: 133.63 Height: 8.85 m
Data from the previous 72 hours. | See also: Recent months for locations in South Australia
Date/Time
CST
Temp
°C
App
Temp
°C
Dew
Point
Rel
Hum
%
Delta-T
°C
Wind Press
QNH
hPa
Press
MSL
hPa
Rain
since 9 am
mm
Dir
 
Spd
km/h
Gust
km/h
Spd
kts
Gust
kts
01/10:00pm - - - - - SSE 37 43 20 23 - - -
01/09:30pm - - - - - SSE 35 43 19 23 - - -
01/09:00pm - - - - - SSE 35 41 19 22 - - -
01/08:30pm - - - - - SSE 41 46 22 25 - - -
01/08:00pm - - - - - SSE 41 48 22 26 - - -
01/07:30pm - - - - - SSE 41 46 22 25 - - -
01/07:00pm - - - - - SSE 41 48 22 26 - - -
01/06:30pm - - - - - S 39 46 21 25 - - -
01/06:00pm - - - - - S 41 46 22 25 - - -
01/05:30pm - - - - - S 41 48 22 26 - - -
01/05:00pm - - - - - S 41 48 22 26 - - -
01/04:30pm - - - - - S 43 48 23 26 - - -
01/04:00pm - - - - - S 39 48 21 26 - - -
01/03:30pm - - - - - S 39 44 21 24 - - -
01/03:00pm - - - - - S 37 44 20 24 - - -
01/02:30pm - - - - - S 33 39 18 21 - - -
01/02:00pm - - - - - S 33 39 18 21 - - -
01/01:30pm - - - - - S 28 33 15 18 - - -
01/01:00pm - - - - - S 26 32 14 17 - - -
01/12:30pm - - - - - S 26 33 14 18 - - -
01/12:00pm - - - - - SSE 22 32 12 17 - - -
01/11:30am - - - - - SE 20 26 11 14 - - -
01/11:00am - - - - - SE 20 28 11 15 - - -
01/10:30am - - - - - SE 19 26 10 14 - - -
01/10:00am - - - - - SE 19 26 10 14 - - -
01/09:30am - - - - - ESE 17 22 9 12 - - -
01/09:00am - - - - - SE 19 26 10 14 - - -
01/08:30am - - - - - SE 26 35 14 19 - - -
01/08:00am - - - - - SE 28 37 15 20 - - -
01/07:30am - - - - - SE 30 37 16 20 - - -
01/07:00am - - - - - SE 24 30 13 16 - - -
01/06:30am - - - - - SSE 28 33 15 18 - - -
01/06:00am - - - - - SSE 30 39 16 21 - - -
01/05:30am - - - - - S 30 35 16 19 - - -
01/05:00am - - - - - SSE 30 37 16 20 - - -
01/04:30am - - - - - SSE 30 35 16 19 - - -
01/04:00am - - - - - SSE 30 35 16 19 - - -
01/03:30am - - - - - SSE 28 35 15 19 - - -
01/03:00am - - - - - S 28 33 15 18 - - -
01/02:30am - - - - - S 28 35 15 19 - - -
01/02:00am - - - - - S 28 33 15 18 - - -
01/01:30am - - - - - S 24 30 13 16 - - -
01/01:00am - - - - - S 26 32 14 17 - - -
01/12:30am - - - - - S 28 32 15 17 - - -
01/12:00am - - - - - S 28 33 15 18 - - -
 
Date/Time
CST
Temp
°C
App
Temp
°C
Dew
Point
Rel
Hum
%
Delta-T
°C
Wind Press
QNH
hPa
Press
MSL
hPa
Rain
since 9 am
mm
Dir
 
Spd
km/h
Gust
km/h
Spd
kts
Gust
kts
30/11:30pm - - - - - S 26 33 14 18 - - -
30/11:00pm - - - - - S 30 35 16 19 - - -
30/10:30pm - - - - - S 28 32 15 17 - - -
30/10:00pm - - - - - S 28 33 15 18 - - -
30/09:30pm - - - - - S 30 35 16 19 - - -
30/09:00pm - - - - - S 30 35 16 19 - - -
30/08:30pm - - - - - S 28 35 15 19 - - -
30/08:00pm - - - - - S 28 35 15 19 - - -
30/07:30pm - - - - - S 30 37 16 20 - - -
30/07:00pm - - - - - SSW 30 35 16 19 - - -
30/06:30pm - - - - - SSW 35 39 19 21 - - -
30/06:00pm - - - - - SSW 35 41 19 22 - - -
30/05:30pm - - - - - SSW 33 41 18 22 - - -
30/05:00pm - - - - - SSW 32 39 17 21 - - -
30/04:30pm - - - - - SSW 33 43 18 23 - - -
30/04:00pm - - - - - SW 32 39 17 21 - - -
30/03:30pm - - - - - SW 30 33 16 18 - - -
30/03:00pm - - - - - SW 32 35 17 19 - - -
30/02:30pm - - - - - WSW 28 32 15 17 - - -
30/02:00pm - - - - - WSW 28 33 15 18 - - -
30/01:30pm - - - - - WSW 28 33 15 18 - - -
30/01:00pm - - - - - SW 32 37 17 20 - - -
30/12:30pm - - - - - SW 30 37 16 20 - - -
30/12:00pm - - - - - SW 30 35 16 19 - - -
30/11:30am - - - - - WSW 30 35 16 19 - - -
30/11:00am - - - - - WSW 22 26 12 14 - - -
30/10:30am - - - - - WSW 20 24 11 13 - - -
30/10:00am - - - - - WSW 19 22 10 12 - - -
30/09:30am - - - - - WSW 20 26 11 14 - - -
30/09:00am - - - - - WNW 11 15 6 8 - - -
30/08:30am - - - - - NW 9 11 5 6 - - -
30/08:00am - - - - - N 11 11 6 6 - - -
30/07:30am - - - - - NNW 11 13 6 7 - - -
30/07:00am - - - - - W 11 13 6 7 - - -
30/06:30am - - - - - WSW 20 26 11 14 - - -
30/06:00am - - - - - WSW 17 20 9 11 - - -
30/05:30am - - - - - W 15 17 8 9 - - -
30/05:00am - - - - - WSW 19 20 10 11 - - -
30/04:30am - - - - - WSW 17 19 9 10 - - -
30/04:00am - - - - - W 11 15 6 8 - - -
30/03:30am - - - - - N 11 11 6 6 - - -
30/03:00am - - - - - NNW 9 13 5 7 - - -
30/02:30am - - - - - NNW 9 11 5 6 - - -
30/02:00am - - - - - NNW 7 9 4 5 - - -
30/01:30am - - - - - NNW 7 9 4 5 - - -
30/01:00am - - - - - N 9 11 5 6 - - -
30/12:30am - - - - - NE 13 15 7 8 - - -
30/12:00am - - - - - NE 11 13 6 7 - - -
 
Date/Time
CST
Temp
°C
App
Temp
°C
Dew
Point
Rel
Hum
%
Delta-T
°C
Wind Press
QNH
hPa
Press
MSL
hPa
Rain
since 9 am
mm
Dir
 
Spd
km/h
Gust
km/h
Spd
kts
Gust
kts
29/11:30pm - - - - - NE 13 15 7 8 - - -
29/11:00pm - - - - - NE 15 17 8 9 - - -
29/10:30pm - - - - - ENE 9 11 5 6 - - -
29/10:00pm - - - - - ENE 7 9 4 5 - - -
29/09:30pm - - - - - E 11 13 6 7 - - -
29/09:00pm - - - - - E 11 11 6 6 - - -
29/08:30pm - - - - - ESE 9 11 5 6 - - -
29/08:00pm - - - - - SE 13 15 7 8 - - -
29/07:30pm - - - - - SSE 17 19 9 10 - - -
29/07:00pm - - - - - SSE 20 22 11 12 - - -
29/06:30pm - - - - - S 20 24 11 13 - - -
29/06:00pm - - - - - S 20 24 11 13 - - -
29/05:30pm - - - - - SSE 19 22 10 12 - - -
29/05:00pm - - - - - S 22 26 12 14 - - -
29/04:30pm - - - - - SSE 20 24 11 13 - - -
29/04:00pm - - - - - S 24 28 13 15 - - -
29/03:30pm - - - - - S 20 24 11 13 - - -
29/03:00pm - - - - - S 19 22 10 12 - - -
29/02:30pm - - - - - S 19 20 10 11 - - -
29/02:00pm - - - - - SSW 11 13 6 7 - - -
29/01:30pm - - - - - SSW 11 11 6 6 - - -
29/01:00pm - - - - - SSW 11 13 6 7 - - -
29/12:30pm - - - - - SSW 13 15 7 8 - - -
29/12:00pm - - - - - SW 7 9 4 5 - - -
29/11:30am - - - - - WNW 9 9 5 5 - - -
29/11:00am - - - - - NNW 9 11 5 6 - - -
29/10:30am - - - - - N 7 9 4 5 - - -
29/10:00am - - - - - N 13 15 7 8 - - -
29/09:30am - - - - - NNE 13 17 7 9 - - -
29/09:00am - - - - - NNE 15 19 8 10 - - -
29/08:30am - - - - - NNE 17 19 9 10 - - -
29/08:00am - - - - - NNE 19 22 10 12 - - -
29/07:30am - - - - - NNE 22 24 12 13 - - -
29/07:00am - - - - - NE 20 22 11 12 - - -
29/06:30am - - - - - NE 19 22 10 12 - - -
29/06:00am - - - - - NNE 17 19 9 10 - - -
29/05:30am - - - - - ESE 6 9 3 5 - - -
29/05:00am - - - - - S 11 15 6 8 - - -
29/04:30am - - - - - S 19 20 10 11 - - -
29/04:00am - - - - - SSW 20 24 11 13 - - -
29/03:30am - - - - - SSW 20 24 11 13 - - -
29/03:00am - - - - - SSW 22 28 12 15 - - -
29/02:30am - - - - - SSW 26 32 14 17 - - -
29/02:00am - - - - - SW 28 33 15 18 - - -
29/01:30am - - - - - SW 32 37 17 20 - - -
29/01:00am - - - - - SW 35 43 19 23 - - -
29/12:30am - - - - - SW 32 35 17 19 - - -
29/12:00am - - - - - SW 24 28 13 15 - - -
 
Date/Time
CST
Temp
°C
App
Temp
°C
Dew
Point
Rel
Hum
%
Delta-T
°C
Wind Press
QNH
hPa
Press
MSL
hPa
Rain
since 9 am
mm
Dir
 
Spd
km/h
Gust
km/h
Spd
kts
Gust
kts
28/11:30pm - - - - - SW 24 32 13 17 - - -
28/11:00pm - - - - - SW 26 30 14 16 - - -
28/10:30pm - - - - - SW 22 28 12 15 - - -

Other Formats:

Comma delimited format used in spreadsheet applications
http://www.bom.gov.au/fwo/IDS60801/IDS60801.95653.axf

JavaScript Object Notation format (JSON) in row-major order
http://www.bom.gov.au/fwo/IDS60801/IDS60801.95653.json